sensor_id;sensor_type;location;lat;lon;timestamp;P1;durP1;ratioP1;P2;durP2;ratioP2
3967;SDS011;9221;42.646;23.380;2022-07-10T00:02:00;15.03;;;7.70;;
3967;SDS011;9221;42.646;23.380;2022-07-10T00:04:25;14.33;;;7.47;;
3967;SDS011;9221;42.646;23.380;2022-07-10T00:06:50;16.93;;;8.80;;
3967;SDS011;9221;42.646;23.380;2022-07-10T00:09:16;14.67;;;7.70;;
3967;SDS011;9221;42.646;23.380;2022-07-10T00:11:41;13.43;;;7.70;;
3967;SDS011;9221;42.646;23.380;2022-07-10T00:14:07;14.90;;;8.33;;
3967;SDS011;9221;42.646;23.380;2022-07-10T00:16:32;14.40;;;7.43;;
3967;SDS011;9221;42.646;23.380;2022-07-10T00:18:58;13.57;;;7.73;;
3967;SDS011;9221;42.646;23.380;2022-07-10T00:21:23;10.40;;;6.70;;
3967;SDS011;9221;42.646;23.380;2022-07-10T00:23:49;14.20;;;7.63;;
3967;SDS011;9221;42.646;23.380;2022-07-10T00:26:14;14.30;;;7.93;;
3967;SDS011;9221;42.646;23.380;2022-07-10T00:28:39;13.20;;;7.53;;
3967;SDS011;9221;42.646;23.380;2022-07-10T00:31:05;13.10;;;7.70;;
3967;SDS011;9221;42.646;23.380;2022-07-10T00:33:30;12.70;;;7.23;;
3967;SDS011;9221;42.646;23.380;2022-07-10T00:35:57;14.17;;;7.50;;
3967;SDS011;9221;42.646;23.380;2022-07-10T00:38:23;13.13;;;7.70;;
3967;SDS011;9221;42.646;23.380;2022-07-10T00:40:48;12.20;;;7.33;;
3967;SDS011;9221;42.646;23.380;2022-07-10T00:43:14;16.13;;;7.53;;
3967;SDS011;9221;42.646;23.380;2022-07-10T00:45:39;15.10;;;7.93;;
3967;SDS011;9221;42.646;23.380;2022-07-10T00:48:05;12.50;;;7.80;;
3967;SDS011;9221;42.646;23.380;2022-07-10T00:50:30;13.83;;;7.90;;
3967;SDS011;9221;42.646;23.380;2022-07-10T00:52:57;17.30;;;7.20;;
3967;SDS011;9221;42.646;23.380;2022-07-10T00:55:22;14.33;;;8.60;;
3967;SDS011;9221;42.646;23.380;2022-07-10T00:57:48;12.70;;;7.93;;
3967;SDS011;9221;42.646;23.380;2022-07-10T01:00:14;13.20;;;8.23;;
3967;SDS011;9221;42.646;23.380;2022-07-10T01:02:41;12.53;;;8.00;;
3967;SDS011;9221;42.646;23.380;2022-07-10T01:05:08;20.77;;;8.30;;
3967;SDS011;9221;42.646;23.380;2022-07-10T01:07:34;15.70;;;8.43;;
3967;SDS011;9221;42.646;23.380;2022-07-10T01:09:59;14.10;;;8.10;;
3967;SDS011;9221;42.646;23.380;2022-07-10T01:12:27;15.67;;;8.60;;
3967;SDS011;9221;42.646;23.380;2022-07-10T01:14:53;13.73;;;7.40;;
3967;SDS011;9221;42.646;23.380;2022-07-10T01:17:19;12.17;;;7.80;;
3967;SDS011;9221;42.646;23.380;2022-07-10T01:19:44;18.70;;;7.77;;
3967;SDS011;9221;42.646;23.380;2022-07-10T01:22:10;14.63;;;7.90;;
3967;SDS011;9221;42.646;23.380;2022-07-10T01:24:35;11.40;;;6.60;;
3967;SDS011;9221;42.646;23.380;2022-07-10T01:27:01;16.90;;;7.43;;
3967;SDS011;9221;42.646;23.380;2022-07-10T01:29:27;12.80;;;7.70;;
3967;SDS011;9221;42.646;23.380;2022-07-10T01:31:54;13.50;;;7.70;;
3967;SDS011;9221;42.646;23.380;2022-07-10T01:34:19;16.70;;;7.40;;
3967;SDS011;9221;42.646;23.380;2022-07-10T01:36:45;14.67;;;7.50;;
3967;SDS011;9221;42.646;23.380;2022-07-10T01:39:11;18.53;;;7.43;;
3967;SDS011;9221;42.646;23.380;2022-07-10T01:41:36;11.00;;;6.80;;
3967;SDS011;9221;42.646;23.380;2022-07-10T01:44:02;16.93;;;8.10;;
3967;SDS011;9221;42.646;23.380;2022-07-10T01:46:27;16.97;;;7.43;;
3967;SDS011;9221;42.646;23.380;2022-07-10T01:48:53;14.73;;;7.60;;
3967;SDS011;9221;42.646;23.380;2022-07-10T01:51:19;13.60;;;7.13;;
3967;SDS011;9221;42.646;23.380;2022-07-10T01:53:45;14.57;;;8.27;;
3967;SDS011;9221;42.646;23.380;2022-07-10T01:56:11;13.20;;;7.50;;
3967;SDS011;9221;42.646;23.380;2022-07-10T01:58:37;14.83;;;7.67;;
3967;SDS011;9221;42.646;23.380;2022-07-10T02:01:03;20.17;;;8.20;;
3967;SDS011;9221;42.646;23.380;2022-07-10T02:03:30;12.33;;;7.37;;
3967;SDS011;9221;42.646;23.380;2022-07-10T02:06:15;14.10;;;7.13;;
3967;SDS011;9221;42.646;23.380;2022-07-10T02:08:41;12.73;;;7.40;;
3967;SDS011;9221;42.646;23.380;2022-07-10T02:11:06;14.23;;;7.50;;
3967;SDS011;9221;42.646;23.380;2022-07-10T02:13:31;12.93;;;7.03;;
3967;SDS011;9221;42.646;23.380;2022-07-10T02:15:57;12.80;;;7.47;;
3967;SDS011;9221;42.646;23.380;2022-07-10T02:18:23;13.80;;;7.57;;
3967;SDS011;9221;42.646;23.380;2022-07-10T02:20:49;11.30;;;6.83;;
3967;SDS011;9221;42.646;23.380;2022-07-10T02:23:15;16.80;;;6.83;;
3967;SDS011;9221;42.646;23.380;2022-07-10T02:25:41;13.53;;;6.90;;
3967;SDS011;9221;42.646;23.380;2022-07-10T02:28:07;11.23;;;7.03;;
3967;SDS011;9221;42.646;23.380;2022-07-10T02:30:33;12.90;;;7.23;;
3967;SDS011;9221;42.646;23.380;2022-07-10T02:32:59;12.50;;;7.73;;
3967;SDS011;9221;42.646;23.380;2022-07-10T02:35:24;17.70;;;7.40;;
3967;SDS011;9221;42.646;23.380;2022-07-10T02:37:50;14.10;;;7.43;;
3967;SDS011;9221;42.646;23.380;2022-07-10T02:40:15;13.90;;;8.30;;
3967;SDS011;9221;42.646;23.380;2022-07-10T02:42:41;13.70;;;7.40;;
3967;SDS011;9221;42.646;23.380;2022-07-10T02:45:06;16.43;;;8.07;;
3967;SDS011;9221;42.646;23.380;2022-07-10T02:47:32;11.43;;;7.53;;
3967;SDS011;9221;42.646;23.380;2022-07-10T02:49:58;13.77;;;7.03;;
3967;SDS011;9221;42.646;23.380;2022-07-10T02:52:23;10.83;;;6.53;;
3967;SDS011;9221;42.646;23.380;2022-07-10T02:54:49;13.03;;;7.10;;
3967;SDS011;9221;42.646;23.380;2022-07-10T02:57:15;10.77;;;7.03;;
3967;SDS011;9221;42.646;23.380;2022-07-10T02:59:41;24.30;;;7.47;;
3967;SDS011;9221;42.646;23.380;2022-07-10T03:02:06;14.17;;;6.93;;
3967;SDS011;9221;42.646;23.380;2022-07-10T03:04:32;14.93;;;7.37;;
3967;SDS011;9221;42.646;23.380;2022-07-10T03:06:58;11.80;;;7.50;;
3967;SDS011;9221;42.646;23.380;2022-07-10T03:09:23;14.27;;;6.40;;
3967;SDS011;9221;42.646;23.380;2022-07-10T03:11:50;12.60;;;7.80;;
3967;SDS011;9221;42.646;23.380;2022-07-10T03:14:16;11.13;;;7.13;;
3967;SDS011;9221;42.646;23.380;2022-07-10T03:16:42;10.77;;;6.47;;
3967;SDS011;9221;42.646;23.380;2022-07-10T03:19:07;15.60;;;7.00;;
3967;SDS011;9221;42.646;23.380;2022-07-10T03:21:33;10.40;;;6.53;;
3967;SDS011;9221;42.646;23.380;2022-07-10T03:23:58;11.67;;;6.67;;
3967;SDS011;9221;42.646;23.380;2022-07-10T03:26:24;12.93;;;7.43;;
3967;SDS011;9221;42.646;23.380;2022-07-10T03:28:49;12.23;;;7.10;;
3967;SDS011;9221;42.646;23.380;2022-07-10T03:31:14;12.90;;;6.87;;
3967;SDS011;9221;42.646;23.380;2022-07-10T03:33:40;16.77;;;7.37;;
3967;SDS011;9221;42.646;23.380;2022-07-10T03:36:05;12.43;;;6.33;;
3967;SDS011;9221;42.646;23.380;2022-07-10T03:38:31;16.10;;;7.20;;
3967;SDS011;9221;42.646;23.380;2022-07-10T03:40:56;15.90;;;7.50;;
3967;SDS011;9221;42.646;23.380;2022-07-10T03:43:22;15.10;;;7.30;;
3967;SDS011;9221;42.646;23.380;2022-07-10T03:45:49;11.40;;;7.07;;
3967;SDS011;9221;42.646;23.380;2022-07-10T03:48:14;13.80;;;7.40;;
3967;SDS011;9221;42.646;23.380;2022-07-10T03:50:40;12.80;;;7.40;;
3967;SDS011;9221;42.646;23.380;2022-07-10T03:53:05;11.40;;;6.40;;
3967;SDS011;9221;42.646;23.380;2022-07-10T03:55:31;13.73;;;6.73;;
3967;SDS011;9221;42.646;23.380;2022-07-10T03:57:57;15.40;;;7.43;;
3967;SDS011;9221;42.646;23.380;2022-07-10T04:00:24;14.67;;;7.20;;
3967;SDS011;9221;42.646;23.380;2022-07-10T04:02:58;18.03;;;7.17;;
3967;SDS011;9221;42.646;23.380;2022-07-10T04:05:25;11.80;;;7.40;;
3967;SDS011;9221;42.646;23.380;2022-07-10T04:07:51;15.77;;;7.13;;
3967;SDS011;9221;42.646;23.380;2022-07-10T04:10:17;10.67;;;6.77;;
3967;SDS011;9221;42.646;23.380;2022-07-10T04:12:43;12.27;;;6.33;;
3967;SDS011;9221;42.646;23.380;2022-07-10T04:15:09;11.97;;;6.90;;
3967;SDS011;9221;42.646;23.380;2022-07-10T04:17:34;11.97;;;6.20;;
3967;SDS011;9221;42.646;23.380;2022-07-10T04:20:00;13.07;;;6.30;;
3967;SDS011;9221;42.646;23.380;2022-07-10T04:22:26;13.20;;;7.20;;
3967;SDS011;9221;42.646;23.380;2022-07-10T04:24:52;13.93;;;7.23;;
3967;SDS011;9221;42.646;23.380;2022-07-10T04:27:17;11.03;;;6.90;;
3967;SDS011;9221;42.646;23.380;2022-07-10T04:29:43;11.80;;;6.20;;
3967;SDS011;9221;42.646;23.380;2022-07-10T04:32:09;17.67;;;7.17;;
3967;SDS011;9221;42.646;23.380;2022-07-10T04:34:34;12.10;;;6.17;;
3967;SDS011;9221;42.646;23.380;2022-07-10T04:37:00;16.00;;;6.20;;
3967;SDS011;9221;42.646;23.380;2022-07-10T04:39:25;12.03;;;6.87;;
3967;SDS011;9221;42.646;23.380;2022-07-10T04:41:51;11.43;;;6.27;;
3967;SDS011;9221;42.646;23.380;2022-07-10T04:44:17;10.63;;;6.60;;
3967;SDS011;9221;42.646;23.380;2022-07-10T04:46:43;11.77;;;6.23;;
3967;SDS011;9221;42.646;23.380;2022-07-10T04:49:08;9.47;;;6.03;;
3967;SDS011;9221;42.646;23.380;2022-07-10T04:51:34;9.40;;;5.50;;
3967;SDS011;9221;42.646;23.380;2022-07-10T04:54:00;11.20;;;6.30;;
3967;SDS011;9221;42.646;23.380;2022-07-10T04:56:25;17.03;;;5.70;;
3967;SDS011;9221;42.646;23.380;2022-07-10T04:58:50;14.90;;;5.47;;
3967;SDS011;9221;42.646;23.380;2022-07-10T05:01:16;14.40;;;5.70;;
3967;SDS011;9221;42.646;23.380;2022-07-10T05:03:41;8.73;;;5.43;;
3967;SDS011;9221;42.646;23.380;2022-07-10T05:06:07;7.90;;;4.90;;
3967;SDS011;9221;42.646;23.380;2022-07-10T05:08:33;11.27;;;5.73;;
3967;SDS011;9221;42.646;23.380;2022-07-10T05:10:58;16.27;;;6.00;;
3967;SDS011;9221;42.646;23.380;2022-07-10T05:13:24;17.47;;;5.13;;
3967;SDS011;9221;42.646;23.380;2022-07-10T05:15:49;11.30;;;5.40;;
3967;SDS011;9221;42.646;23.380;2022-07-10T05:18:15;9.00;;;5.00;;
3967;SDS011;9221;42.646;23.380;2022-07-10T05:20:41;11.43;;;5.30;;
3967;SDS011;9221;42.646;23.380;2022-07-10T05:23:08;10.20;;;6.20;;
3967;SDS011;9221;42.646;23.380;2022-07-10T05:25:34;11.73;;;5.40;;
3967;SDS011;9221;42.646;23.380;2022-07-10T05:28:02;9.47;;;5.27;;
3967;SDS011;9221;42.646;23.380;2022-07-10T05:30:29;10.50;;;5.50;;
3967;SDS011;9221;42.646;23.380;2022-07-10T05:32:54;8.70;;;5.73;;
3967;SDS011;9221;42.646;23.380;2022-07-10T05:35:19;9.83;;;5.90;;
3967;SDS011;9221;42.646;23.380;2022-07-10T05:37:45;11.03;;;5.70;;
3967;SDS011;9221;42.646;23.380;2022-07-10T05:40:10;13.23;;;5.53;;
3967;SDS011;9221;42.646;23.380;2022-07-10T05:42:37;9.33;;;5.63;;
3967;SDS011;9221;42.646;23.380;2022-07-10T05:45:02;11.40;;;5.27;;
3967;SDS011;9221;42.646;23.380;2022-07-10T05:47:29;9.73;;;5.63;;
3967;SDS011;9221;42.646;23.380;2022-07-10T05:49:54;19.43;;;5.70;;
3967;SDS011;9221;42.646;23.380;2022-07-10T05:52:20;11.00;;;5.33;;
3967;SDS011;9221;42.646;23.380;2022-07-10T05:54:45;13.03;;;5.70;;
3967;SDS011;9221;42.646;23.380;2022-07-10T05:57:11;9.10;;;5.47;;
3967;SDS011;9221;42.646;23.380;2022-07-10T05:59:36;7.10;;;4.87;;
3967;SDS011;9221;42.646;23.380;2022-07-10T06:02:02;8.40;;;4.90;;
3967;SDS011;9221;42.646;23.380;2022-07-10T06:04:27;9.57;;;5.10;;
3967;SDS011;9221;42.646;23.380;2022-07-10T06:06:53;7.33;;;4.63;;
3967;SDS011;9221;42.646;23.380;2022-07-10T06:09:18;8.33;;;4.70;;
3967;SDS011;9221;42.646;23.380;2022-07-10T06:11:43;13.83;;;5.03;;
3967;SDS011;9221;42.646;23.380;2022-07-10T06:14:11;12.43;;;4.97;;
3967;SDS011;9221;42.646;23.380;2022-07-10T06:16:37;7.73;;;4.53;;
3967;SDS011;9221;42.646;23.380;2022-07-10T06:19:02;8.67;;;4.33;;
3967;SDS011;9221;42.646;23.380;2022-07-10T06:21:28;8.00;;;4.60;;
3967;SDS011;9221;42.646;23.380;2022-07-10T06:23:53;9.77;;;4.37;;
3967;SDS011;9221;42.646;23.380;2022-07-10T06:26:18;14.03;;;5.27;;
3967;SDS011;9221;42.646;23.380;2022-07-10T06:28:44;7.30;;;4.30;;
3967;SDS011;9221;42.646;23.380;2022-07-10T06:31:10;12.53;;;4.40;;
3967;SDS011;9221;42.646;23.380;2022-07-10T06:33:35;11.17;;;4.33;;
3967;SDS011;9221;42.646;23.380;2022-07-10T06:36:01;8.30;;;4.20;;
3967;SDS011;9221;42.646;23.380;2022-07-10T06:38:27;8.63;;;4.70;;
3967;SDS011;9221;42.646;23.380;2022-07-10T06:40:52;9.53;;;4.30;;
3967;SDS011;9221;42.646;23.380;2022-07-10T06:43:18;6.03;;;3.83;;
3967;SDS011;9221;42.646;23.380;2022-07-10T06:45:43;7.87;;;4.10;;
3967;SDS011;9221;42.646;23.380;2022-07-10T06:48:09;13.33;;;4.20;;
3967;SDS011;9221;42.646;23.380;2022-07-10T06:50:35;11.00;;;4.03;;
3967;SDS011;9221;42.646;23.380;2022-07-10T06:53:02;7.03;;;4.00;;
3967;SDS011;9221;42.646;23.380;2022-07-10T06:55:28;5.70;;;3.60;;
3967;SDS011;9221;42.646;23.380;2022-07-10T06:57:54;5.30;;;3.20;;
3967;SDS011;9221;42.646;23.380;2022-07-10T07:00:20;12.00;;;3.67;;
3967;SDS011;9221;42.646;23.380;2022-07-10T07:02:46;6.00;;;3.60;;
3967;SDS011;9221;42.646;23.380;2022-07-10T07:05:12;6.17;;;3.87;;
3967;SDS011;9221;42.646;23.380;2022-07-10T07:07:38;6.13;;;3.40;;
3967;SDS011;9221;42.646;23.380;2022-07-10T07:10:04;8.17;;;3.50;;
3967;SDS011;9221;42.646;23.380;2022-07-10T07:12:30;6.23;;;3.80;;
3967;SDS011;9221;42.646;23.380;2022-07-10T07:14:56;9.27;;;3.87;;
3967;SDS011;9221;42.646;23.380;2022-07-10T07:17:21;6.80;;;3.40;;
3967;SDS011;9221;42.646;23.380;2022-07-10T07:19:48;7.20;;;4.40;;
3967;SDS011;9221;42.646;23.380;2022-07-10T07:22:32;7.07;;;3.73;;
3967;SDS011;9221;42.646;23.380;2022-07-10T07:25:16;10.70;;;3.60;;
3967;SDS011;9221;42.646;23.380;2022-07-10T07:27:41;7.90;;;3.20;;
3967;SDS011;9221;42.646;23.380;2022-07-10T07:30:08;10.00;;;3.53;;
3967;SDS011;9221;42.646;23.380;2022-07-10T07:32:36;5.30;;;3.80;;
3967;SDS011;9221;42.646;23.380;2022-07-10T07:35:02;5.57;;;3.30;;
3967;SDS011;9221;42.646;23.380;2022-07-10T07:37:38;13.80;;;3.50;;
3967;SDS011;9221;42.646;23.380;2022-07-10T07:40:04;7.50;;;3.27;;
3967;SDS011;9221;42.646;23.380;2022-07-10T07:42:31;8.53;;;3.67;;
3967;SDS011;9221;42.646;23.380;2022-07-10T07:44:57;19.50;;;3.27;;
3967;SDS011;9221;42.646;23.380;2022-07-10T07:47:22;14.83;;;3.87;;
3967;SDS011;9221;42.646;23.380;2022-07-10T07:49:48;12.00;;;3.40;;
3967;SDS011;9221;42.646;23.380;2022-07-10T07:52:13;7.90;;;3.63;;
3967;SDS011;9221;42.646;23.380;2022-07-10T07:54:39;8.10;;;3.43;;
3967;SDS011;9221;42.646;23.380;2022-07-10T07:57:05;6.60;;;3.33;;
3967;SDS011;9221;42.646;23.380;2022-07-10T07:59:30;4.73;;;3.30;;
3967;SDS011;9221;42.646;23.380;2022-07-10T08:01:56;5.80;;;3.20;;
3967;SDS011;9221;42.646;23.380;2022-07-10T08:04:21;7.23;;;3.20;;
3967;SDS011;9221;42.646;23.380;2022-07-10T08:06:46;7.57;;;3.60;;
3967;SDS011;9221;42.646;23.380;2022-07-10T08:09:12;6.73;;;3.50;;
3967;SDS011;9221;42.646;23.380;2022-07-10T08:11:37;8.20;;;3.13;;
3967;SDS011;9221;42.646;23.380;2022-07-10T08:14:03;11.90;;;3.17;;
3967;SDS011;9221;42.646;23.380;2022-07-10T08:16:28;4.90;;;2.90;;
3967;SDS011;9221;42.646;23.380;2022-07-10T08:18:54;5.83;;;3.17;;
3967;SDS011;9221;42.646;23.380;2022-07-10T08:21:19;5.37;;;3.33;;
3967;SDS011;9221;42.646;23.380;2022-07-10T08:23:45;6.10;;;3.10;;
3967;SDS011;9221;42.646;23.380;2022-07-10T08:26:10;6.40;;;3.10;;
3967;SDS011;9221;42.646;23.380;2022-07-10T08:28:36;9.07;;;2.87;;
3967;SDS011;9221;42.646;23.380;2022-07-10T08:31:01;4.33;;;2.70;;
3967;SDS011;9221;42.646;23.380;2022-07-10T08:33:27;14.53;;;2.90;;
3967;SDS011;9221;42.646;23.380;2022-07-10T08:35:52;4.73;;;3.10;;
3967;SDS011;9221;42.646;23.380;2022-07-10T08:38:18;8.70;;;4.20;;
3967;SDS011;9221;42.646;23.380;2022-07-10T08:40:43;4.63;;;2.70;;
3967;SDS011;9221;42.646;23.380;2022-07-10T08:43:10;4.83;;;2.40;;
3967;SDS011;9221;42.646;23.380;2022-07-10T08:45:36;12.57;;;3.20;;
3967;SDS011;9221;42.646;23.380;2022-07-10T08:48:02;6.10;;;2.40;;
3967;SDS011;9221;42.646;23.380;2022-07-10T08:50:32;5.83;;;3.00;;
3967;SDS011;9221;42.646;23.380;2022-07-10T08:53:09;6.17;;;2.83;;
3967;SDS011;9221;42.646;23.380;2022-07-10T08:55:38;4.00;;;2.63;;
3967;SDS011;9221;42.646;23.380;2022-07-10T08:58:04;5.37;;;2.57;;
3967;SDS011;9221;42.646;23.380;2022-07-10T09:00:33;5.47;;;2.60;;
3967;SDS011;9221;42.646;23.380;2022-07-10T09:02:58;6.30;;;2.80;;
3967;SDS011;9221;42.646;23.380;2022-07-10T09:05:24;4.07;;;2.63;;
3967;SDS011;9221;42.646;23.380;2022-07-10T09:07:50;8.77;;;2.60;;
3967;SDS011;9221;42.646;23.380;2022-07-10T09:10:18;5.23;;;2.37;;
3967;SDS011;9221;42.646;23.380;2022-07-10T09:12:49;5.90;;;2.87;;
3967;SDS011;9221;42.646;23.380;2022-07-10T09:15:16;3.47;;;2.37;;
3967;SDS011;9221;42.646;23.380;2022-07-10T09:17:50;5.10;;;2.47;;
3967;SDS011;9221;42.646;23.380;2022-07-10T09:20:30;3.50;;;2.60;;
3967;SDS011;9221;42.646;23.380;2022-07-10T09:25:50;4.67;;;2.97;;
3967;SDS011;9221;42.646;23.380;2022-07-10T09:28:18;7.47;;;3.70;;
3967;SDS011;9221;42.646;23.380;2022-07-10T09:30:44;4.70;;;2.50;;
3967;SDS011;9221;42.646;23.380;2022-07-10T09:33:27;5.43;;;3.10;;
3967;SDS011;9221;42.646;23.380;2022-07-10T09:41:14;5.73;;;2.80;;
3967;SDS011;9221;42.646;23.380;2022-07-10T09:43:47;9.07;;;3.80;;
3967;SDS011;9221;42.646;23.380;2022-07-10T09:46:14;4.13;;;2.57;;
3967;SDS011;9221;42.646;23.380;2022-07-10T09:48:40;16.73;;;2.90;;
3967;SDS011;9221;42.646;23.380;2022-07-10T09:51:07;5.53;;;2.80;;
3967;SDS011;9221;42.646;23.380;2022-07-10T09:53:39;3.70;;;2.60;;
3967;SDS011;9221;42.646;23.380;2022-07-10T09:56:07;5.80;;;2.60;;
3967;SDS011;9221;42.646;23.380;2022-07-10T09:58:34;3.40;;;2.10;;
3967;SDS011;9221;42.646;23.380;2022-07-10T10:01:03;4.37;;;2.60;;
3967;SDS011;9221;42.646;23.380;2022-07-10T10:03:33;6.80;;;2.57;;
3967;SDS011;9221;42.646;23.380;2022-07-10T10:11:16;3.20;;;2.40;;
3967;SDS011;9221;42.646;23.380;2022-07-10T10:13:49;12.10;;;2.20;;
3967;SDS011;9221;42.646;23.380;2022-07-10T10:16:15;7.30;;;2.80;;
3967;SDS011;9221;42.646;23.380;2022-07-10T10:18:43;4.70;;;2.00;;
3967;SDS011;9221;42.646;23.380;2022-07-10T10:21:29;8.80;;;2.67;;
3967;SDS011;9221;42.646;23.380;2022-07-10T10:23:55;5.67;;;2.40;;
3967;SDS011;9221;42.646;23.380;2022-07-10T10:26:21;3.80;;;2.20;;
3967;SDS011;9221;42.646;23.380;2022-07-10T10:28:48;3.17;;;2.13;;
3967;SDS011;9221;42.646;23.380;2022-07-10T10:31:19;4.43;;;2.10;;
3967;SDS011;9221;42.646;23.380;2022-07-10T10:33:46;3.93;;;2.00;;
3967;SDS011;9221;42.646;23.380;2022-07-10T10:36:13;3.30;;;2.43;;
3967;SDS011;9221;42.646;23.380;2022-07-10T10:39:00;4.27;;;2.07;;
3967;SDS011;9221;42.646;23.380;2022-07-10T10:41:27;5.37;;;2.27;;
3967;SDS011;9221;42.646;23.380;2022-07-10T10:49:47;3.17;;;1.97;;
3967;SDS011;9221;42.646;23.380;2022-07-10T10:52:17;12.63;;;3.03;;
3967;SDS011;9221;42.646;23.380;2022-07-10T10:57:21;4.57;;;2.17;;
3967;SDS011;9221;42.646;23.380;2022-07-10T10:59:49;8.17;;;2.60;;
3967;SDS011;9221;42.646;23.380;2022-07-10T11:02:24;6.00;;;2.20;;
3967;SDS011;9221;42.646;23.380;2022-07-10T11:04:49;2.57;;;2.13;;
3967;SDS011;9221;42.646;23.380;2022-07-10T11:13:04;2.57;;;1.80;;
3967;SDS011;9221;42.646;23.380;2022-07-10T11:15:35;2.70;;;1.90;;
3967;SDS011;9221;42.646;23.380;2022-07-10T11:18:07;5.50;;;1.60;;
3967;SDS011;9221;42.646;23.380;2022-07-10T11:20:35;3.60;;;2.10;;
3967;SDS011;9221;42.646;23.380;2022-07-10T11:26:04;5.63;;;1.80;;
3967;SDS011;9221;42.646;23.380;2022-07-10T11:31:35;4.10;;;1.90;;
3967;SDS011;9221;42.646;23.380;2022-07-10T11:34:09;2.30;;;1.67;;
3967;SDS011;9221;42.646;23.380;2022-07-10T11:36:38;5.53;;;1.77;;
3967;SDS011;9221;42.646;23.380;2022-07-10T11:39:04;4.30;;;2.20;;
3967;SDS011;9221;42.646;23.380;2022-07-10T11:41:31;5.00;;;2.17;;
3967;SDS011;9221;42.646;23.380;2022-07-10T11:44:00;5.80;;;2.50;;
3967;SDS011;9221;42.646;23.380;2022-07-10T11:46:31;3.73;;;2.10;;
3967;SDS011;9221;42.646;23.380;2022-07-10T11:48:57;4.37;;;1.87;;
3967;SDS011;9221;42.646;23.380;2022-07-10T11:51:27;5.23;;;2.60;;
3967;SDS011;9221;42.646;23.380;2022-07-10T11:56:23;1.87;;;1.63;;
3967;SDS011;9221;42.646;23.380;2022-07-10T11:58:53;4.93;;;2.40;;
3967;SDS011;9221;42.646;23.380;2022-07-10T12:01:19;2.30;;;1.50;;
3967;SDS011;9221;42.646;23.380;2022-07-10T12:03:45;2.87;;;2.03;;
3967;SDS011;9221;42.646;23.380;2022-07-10T12:06:21;4.80;;;1.60;;
3967;SDS011;9221;42.646;23.380;2022-07-10T12:08:48;2.23;;;1.53;;
3967;SDS011;9221;42.646;23.380;2022-07-10T12:11:17;2.90;;;1.77;;
3967;SDS011;9221;42.646;23.380;2022-07-10T12:13:44;3.77;;;1.90;;
3967;SDS011;9221;42.646;23.380;2022-07-10T12:16:12;3.90;;;1.80;;
3967;SDS011;9221;42.646;23.380;2022-07-10T12:18:38;5.70;;;1.83;;
3967;SDS011;9221;42.646;23.380;2022-07-10T12:21:06;7.27;;;2.10;;
3967;SDS011;9221;42.646;23.380;2022-07-10T12:23:33;4.90;;;2.10;;
3967;SDS011;9221;42.646;23.380;2022-07-10T12:26:00;4.33;;;1.87;;
3967;SDS011;9221;42.646;23.380;2022-07-10T12:28:28;4.33;;;2.17;;
3967;SDS011;9221;42.646;23.380;2022-07-10T12:30:53;3.33;;;1.90;;
3967;SDS011;9221;42.646;23.380;2022-07-10T12:33:19;3.80;;;1.77;;
3967;SDS011;9221;42.646;23.380;2022-07-10T12:38:15;5.50;;;1.93;;
3967;SDS011;9221;42.646;23.380;2022-07-10T12:41:10;2.23;;;1.27;;
3967;SDS011;9221;42.646;23.380;2022-07-10T12:43:37;8.80;;;1.70;;
3967;SDS011;9221;42.646;23.380;2022-07-10T12:46:13;2.67;;;1.60;;
3967;SDS011;9221;42.646;23.380;2022-07-10T12:49:05;6.50;;;1.67;;
3967;SDS011;9221;42.646;23.380;2022-07-10T12:54:00;5.93;;;1.97;;
3967;SDS011;9221;42.646;23.380;2022-07-10T12:56:36;3.50;;;1.63;;
3967;SDS011;9221;42.646;23.380;2022-07-10T12:59:03;3.53;;;1.70;;
3967;SDS011;9221;42.646;23.380;2022-07-10T13:01:43;2.43;;;1.57;;
3967;SDS011;9221;42.646;23.380;2022-07-10T13:04:09;4.57;;;1.90;;
3967;SDS011;9221;42.646;23.380;2022-07-10T13:06:36;1.70;;;1.40;;
3967;SDS011;9221;42.646;23.380;2022-07-10T13:09:03;3.03;;;1.50;;
3967;SDS011;9221;42.646;23.380;2022-07-10T13:11:43;2.13;;;1.50;;
3967;SDS011;9221;42.646;23.380;2022-07-10T13:14:08;6.37;;;2.23;;
3967;SDS011;9221;42.646;23.380;2022-07-10T13:16:34;2.43;;;1.30;;
3967;SDS011;9221;42.646;23.380;2022-07-10T13:19:00;3.03;;;1.00;;
3967;SDS011;9221;42.646;23.380;2022-07-10T13:21:25;2.00;;;1.30;;
3967;SDS011;9221;42.646;23.380;2022-07-10T13:23:51;3.23;;;1.57;;
3967;SDS011;9221;42.646;23.380;2022-07-10T13:26:16;8.43;;;1.30;;
3967;SDS011;9221;42.646;23.380;2022-07-10T13:28:42;3.47;;;1.27;;
3967;SDS011;9221;42.646;23.380;2022-07-10T13:31:07;3.47;;;0.93;;
3967;SDS011;9221;42.646;23.380;2022-07-10T13:33:33;2.80;;;1.37;;
3967;SDS011;9221;42.646;23.380;2022-07-10T13:36:00;1.03;;;0.80;;
3967;SDS011;9221;42.646;23.380;2022-07-10T13:38:26;2.23;;;1.00;;
3967;SDS011;9221;42.646;23.380;2022-07-10T13:40:52;2.13;;;1.20;;
3967;SDS011;9221;42.646;23.380;2022-07-10T13:43:17;6.43;;;1.30;;
3967;SDS011;9221;42.646;23.380;2022-07-10T13:45:44;4.20;;;1.00;;
3967;SDS011;9221;42.646;23.380;2022-07-10T13:48:10;5.70;;;1.30;;
3967;SDS011;9221;42.646;23.380;2022-07-10T13:50:37;2.80;;;0.87;;
3967;SDS011;9221;42.646;23.380;2022-07-10T13:53:06;6.00;;;1.50;;
3967;SDS011;9221;42.646;23.380;2022-07-10T13:55:35;1.83;;;0.90;;
3967;SDS011;9221;42.646;23.380;2022-07-10T13:58:01;3.57;;;0.97;;
3967;SDS011;9221;42.646;23.380;2022-07-10T14:00:26;3.23;;;0.70;;
3967;SDS011;9221;42.646;23.380;2022-07-10T14:02:52;10.37;;;1.70;;
3967;SDS011;9221;42.646;23.380;2022-07-10T14:05:21;1.50;;;0.70;;
3967;SDS011;9221;42.646;23.380;2022-07-10T14:07:49;2.73;;;0.90;;
3967;SDS011;9221;42.646;23.380;2022-07-10T14:10:15;2.57;;;0.90;;
3967;SDS011;9221;42.646;23.380;2022-07-10T14:12:41;1.80;;;0.90;;
3967;SDS011;9221;42.646;23.380;2022-07-10T14:15:07;1.07;;;0.60;;
3967;SDS011;9221;42.646;23.380;2022-07-10T14:17:33;1.70;;;1.10;;
3967;SDS011;9221;42.646;23.380;2022-07-10T14:19:58;4.10;;;1.10;;
3967;SDS011;9221;42.646;23.380;2022-07-10T14:22:24;2.00;;;0.93;;
3967;SDS011;9221;42.646;23.380;2022-07-10T14:24:49;7.23;;;1.07;;
3967;SDS011;9221;42.646;23.380;2022-07-10T14:27:16;1.40;;;0.80;;
3967;SDS011;9221;42.646;23.380;2022-07-10T14:29:42;2.90;;;1.10;;
3967;SDS011;9221;42.646;23.380;2022-07-10T14:32:07;5.97;;;1.20;;
3967;SDS011;9221;42.646;23.380;2022-07-10T14:34:33;3.60;;;0.70;;
3967;SDS011;9221;42.646;23.380;2022-07-10T14:36:58;2.20;;;0.93;;
3967;SDS011;9221;42.646;23.380;2022-07-10T14:39:24;2.90;;;1.10;;
3967;SDS011;9221;42.646;23.380;2022-07-10T14:41:49;3.37;;;1.03;;
3967;SDS011;9221;42.646;23.380;2022-07-10T14:44:15;1.23;;;0.83;;
3967;SDS011;9221;42.646;23.380;2022-07-10T14:46:40;2.27;;;1.10;;
3967;SDS011;9221;42.646;23.380;2022-07-10T14:49:07;2.90;;;1.00;;
3967;SDS011;9221;42.646;23.380;2022-07-10T14:51:33;7.60;;;0.90;;
3967;SDS011;9221;42.646;23.380;2022-07-10T14:54:00;1.30;;;0.80;;
3967;SDS011;9221;42.646;23.380;2022-07-10T14:56:25;6.80;;;1.00;;
3967;SDS011;9221;42.646;23.380;2022-07-10T14:58:51;2.60;;;0.73;;
3967;SDS011;9221;42.646;23.380;2022-07-10T15:01:16;6.20;;;1.10;;
3967;SDS011;9221;42.646;23.380;2022-07-10T15:03:42;4.43;;;0.93;;
3967;SDS011;9221;42.646;23.380;2022-07-10T15:06:07;1.40;;;0.80;;
3967;SDS011;9221;42.646;23.380;2022-07-10T15:08:33;4.10;;;1.10;;
3967;SDS011;9221;42.646;23.380;2022-07-10T15:10:59;2.30;;;1.03;;
3967;SDS011;9221;42.646;23.380;2022-07-10T15:13:28;3.43;;;1.10;;
3967;SDS011;9221;42.646;23.380;2022-07-10T15:15:54;6.73;;;0.93;;
3967;SDS011;9221;42.646;23.380;2022-07-10T15:18:19;2.10;;;1.00;;
3967;SDS011;9221;42.646;23.380;2022-07-10T15:20:46;2.50;;;1.47;;
3967;SDS011;9221;42.646;23.380;2022-07-10T15:23:11;4.50;;;1.30;;
3967;SDS011;9221;42.646;23.380;2022-07-10T15:25:38;2.53;;;1.00;;
3967;SDS011;9221;42.646;23.380;2022-07-10T15:28:06;1.80;;;0.97;;
3967;SDS011;9221;42.646;23.380;2022-07-10T15:30:33;3.10;;;1.00;;
3967;SDS011;9221;42.646;23.380;2022-07-10T15:32:59;2.47;;;0.93;;
3967;SDS011;9221;42.646;23.380;2022-07-10T15:35:24;1.87;;;0.80;;